Time;durP1;ratioP1;P1;durP2;ratioP2;P2;SDS_P1;SDS_P2;PMS_P1;PMS_P2;Temp;Humidity;BMP_temperature;BMP_pressure;BME280_temperature;BME280_humidity;BME280_pressure;Samples;Min_cycle;Max_cycle;Signal;HPM_P1;HPM_P2
2021/07/08 00:01:51;;;;;;;12.60;11.40;;;;;;;23.60;66.18;100747.45;92683;1219;87264;-67
2021/07/08 00:03:59;;;;;;;13.90;11.50;;;;;;;23.58;66.62;100750.48;92638;1210;74181;-71
2021/07/08 00:06:06;;;;;;;12.10;10.90;;;;;;;23.56;66.83;100758.20;92626;1219;82053;-59
2021/07/08 00:08:15;;;;;;;11.90;10.70;;;;;;;23.57;66.71;100756.28;92664;1218;67032;-62
2021/07/08 00:10:29;;;;;;;11.60;10.30;;;;;;;23.59;67.11;100752.16;92698;1219;69650;-62
2021/07/08 00:12:37;;;;;;;15.50;10.70;;;;;;;23.59;67.04;100760.44;92685;1214;86329;-60
2021/07/08 00:14:45;;;;;;;10.90;9.90;;;;;;;23.56;67.21;100763.72;92680;1219;75168;-59
2021/07/08 00:16:53;;;;;;;11.60;10.40;;;;;;;23.55;67.45;100767.56;92659;1224;81048;-62
2021/07/08 00:19:01;;;;;;;11.00;9.80;;;;;;;23.55;67.86;100762.05;92624;1216;68729;-59
2021/07/08 00:21:09;;;;;;;13.70;10.20;;;;;;;23.60;67.68;100758.48;92677;1217;69826;-68
2021/07/08 00:23:18;;;;;;;13.60;10.80;;;;;;;23.61;67.61;100760.99;92660;1217;87319;-69
2021/07/08 00:25:29;;;;;;;12.10;10.80;;;;;;;23.62;68.08;100768.18;92697;1209;73801;-69
2021/07/08 00:27:41;;;;;;;11.90;10.50;;;;;;;23.65;67.86;100775.09;92645;1224;82115;-69
2021/07/08 00:29:48;;;;;;;11.20;10.10;;;;;;;23.66;67.95;100773.97;92659;1216;69008;-60
2021/07/08 00:31:59;;;;;;;11.90;10.50;;;;;;;23.64;68.33;100770.66;92687;1216;69124;-58
2021/07/08 00:34:06;;;;;;;12.20;11.10;;;;;;;23.60;68.41;100772.27;92648;1217;86656;-60
2021/07/08 00:36:14;;;;;;;12.00;10.90;;;;;;;23.51;68.91;100763.70;92666;1223;76263;-56
2021/07/08 00:38:22;;;;;;;12.50;11.20;;;;;;;23.55;68.61;100767.56;92659;1216;82120;-59
2021/07/08 00:40:29;;;;;;;12.20;10.80;;;;;;;23.55;68.69;100772.25;92666;1216;67989;-57
2021/07/08 00:42:41;;;;;;;15.20;10.80;;;;;;;23.54;68.84;100776.92;92669;1223;69424;-60
2021/07/08 00:44:48;;;;;;;13.30;11.30;;;;;;;23.55;68.99;100773.08;92660;1216;87084;-60
2021/07/08 00:46:56;;;;;;;13.10;10.50;;;;;;;23.45;69.02;100776.62;92665;1216;73859;-59
2021/07/08 00:49:03;;;;;;;12.10;10.90;;;;;;;23.42;69.40;100771.63;92656;1216;81826;-60
2021/07/08 00:51:15;;;;;;;13.30;10.40;;;;;;;23.38;69.28;100764.97;92648;1215;68178;-69
2021/07/08 00:53:24;;;;;;;12.10;10.40;;;;;;;23.36;69.27;100774.56;92643;1216;69839;-68
2021/07/08 00:55:32;;;;;;;12.60;11.30;;;;;;;23.36;69.54;100778.16;92629;1216;88155;-69
2021/07/08 00:57:52;;;;;;;11.60;10.50;;;;;;;23.35;69.73;100778.41;92644;1216;76432;-71
2021/07/08 00:59:59;;;;;;;12.10;10.80;;;;;;;23.31;69.91;100777.30;92633;1216;81853;-61
2021/07/08 01:02:07;;;;;;;13.30;11.70;;;;;;;23.26;70.22;100777.26;92683;1216;66938;-60
2021/07/08 01:04:15;;;;;;;13.40;12.10;;;;;;;23.20;70.17;100773.63;92684;1216;69293;-64
2021/07/08 01:06:23;;;;;;;13.00;10.80;;;;;;;23.18;70.17;100772.23;92629;1216;87213;-70
2021/07/08 01:08:31;;;;;;;16.10;10.60;;;;;;;23.12;70.54;100773.27;92676;1221;73955;-67
2021/07/08 01:10:48;;;;;;;11.80;10.60;;;;;;;23.08;70.84;100767.45;92707;1216;82290;-60
2021/07/08 01:12:57;;;;;;;12.50;9.90;;;;;;;23.05;70.88;100772.64;92672;1216;66437;-69
2021/07/08 01:15:12;;;;;;;13.70;10.80;;;;;;;23.02;70.66;100774.00;92665;1216;68827;-68
2021/07/08 01:17:21;;;;;;;11.70;10.10;;;;;;;22.99;71.09;100771.77;92665;1224;87429;-68
2021/07/08 01:19:35;;;;;;;10.20;9.30;;;;;;;22.95;70.90;100773.40;92646;1216;75491;-68
2021/07/08 01:21:44;;;;;;;11.70;9.70;;;;;;;22.85;71.03;100768.61;92725;1223;82004;-67
2021/07/08 01:23:52;;;;;;;12.10;10.20;;;;;;;22.83;71.61;100769.97;92678;1216;66709;-73
2021/07/08 01:26:02;;;;;;;11.50;10.30;;;;;;;22.82;71.62;100773.83;92618;1216;69356;-68
2021/07/08 01:28:13;;;;;;;14.10;9.40;;;;;;;22.83;71.61;100778.23;92666;1216;87822;-71
2021/07/08 01:30:23;;;;;;;10.70;9.60;;;;;;;22.81;71.92;100781.26;92703;1217;76115;-67
2021/07/08 01:32:31;;;;;;;12.40;9.20;;;;;;;22.82;71.90;100782.94;92750;1217;81695;-73
2021/07/08 01:34:43;;;;;;;11.80;9.50;;;;;;;22.85;71.90;100776.88;92745;1222;66105;-67
2021/07/08 01:36:54;;;;;;;11.10;10.00;;;;;;;22.86;72.01;100775.80;92791;1217;69141;-67
2021/07/08 01:39:02;;;;;;;12.40;10.50;;;;;;;22.91;71.99;100781.34;92743;1220;88032;-68
2021/07/08 01:41:11;;;;;;;13.30;11.90;;;;;;;22.88;72.12;100778.30;92775;1217;74822;-60
2021/07/08 01:43:22;;;;;;;16.10;13.40;;;;;;;22.91;72.22;100784.10;92661;1221;81805;-60
2021/07/08 01:45:30;;;;;;;20.00;14.10;;;;;;;22.89;72.03;100778.03;92734;1224;67380;-58
2021/07/08 01:47:38;;;;;;;18.70;14.50;;;;;;;22.90;72.12;100787.13;92689;1217;67947;-58
2021/07/08 01:49:48;;;;;;;19.40;15.00;;;;;;;22.87;72.20;100791.24;92670;1216;87126;-59
2021/07/08 01:51:59;;;;;;;19.70;15.30;;;;;;;22.86;72.53;100797.00;92658;1216;75747;-68
2021/07/08 01:54:09;;;;;;;22.20;15.70;;;;;;;22.87;72.41;100801.42;92686;1216;81500;-68
2021/07/08 01:56:17;;;;;;;19.60;15.30;;;;;;;22.93;72.20;100796.80;92685;1217;68167;-60
2021/07/08 01:58:25;;;;;;;19.40;16.00;;;;;;;22.91;72.49;100800.64;92710;1223;69711;-58
2021/07/08 02:00:32;;;;;;;18.40;14.60;;;;;;;22.89;72.15;100794.56;92678;1216;87949;-67
2021/07/08 02:02:43;;;;;;;21.10;16.10;;;;;;;22.85;72.15;100801.67;92725;1217;74161;-68
2021/07/08 02:04:51;;;;;;;20.20;15.80;;;;;;;22.83;72.50;100792.84;92704;1217;81656;-59
2021/07/08 02:07:00;;;;;;;20.20;15.70;;;;;;;22.78;72.22;100795.55;92606;1217;69178;-58
2021/07/08 02:09:09;;;;;;;24.00;17.30;;;;;;;22.76;72.70;100797.73;92711;1222;69222;-60
2021/07/08 02:11:17;;;;;;;20.10;17.00;;;;;;;22.78;72.42;100801.06;92697;1221;87647;-68
2021/07/08 02:13:25;;;;;;;22.30;17.30;;;;;;;22.73;72.62;100792.75;92704;1217;74738;-69
2021/07/08 02:15:33;;;;;;;26.40;19.30;;;;;;;22.71;72.89;100792.19;92677;1224;80073;-67
2021/07/08 02:17:42;;;;;;;24.80;18.70;;;;;;;22.71;72.58;100797.69;92697;1224;67665;-69
2021/07/08 02:19:50;;;;;;;25.00;18.00;;;;;;;22.64;72.69;100791.54;92738;1217;68455;-57
2021/07/08 02:21:57;;;;;;;25.90;18.40;;;;;;;22.64;72.74;100798.96;92720;1209;86931;-57
2021/07/08 02:24:08;;;;;;;25.30;18.60;;;;;;;22.63;73.03;100797.29;92691;1217;74867;-58
2021/07/08 02:26:16;;;;;;;28.20;19.70;;;;;;;22.57;73.02;100799.16;92724;1217;80300;-68
2021/07/08 02:28:26;;;;;;;24.20;17.00;;;;;;;22.55;73.08;100804.06;92711;1217;67006;-68
2021/07/08 02:30:34;;;;;;;27.70;17.00;;;;;;;22.55;73.13;100801.31;92711;1217;69199;-57
2021/07/08 02:32:44;;;;;;;22.80;15.90;;;;;;;22.55;72.86;100811.52;92758;1217;86308;-59
2021/07/08 02:34:52;;;;;;;32.50;18.90;;;;;;;22.51;73.11;100813.95;92730;1217;75877;-57
2021/07/08 02:37:00;;;;;;;23.60;16.40;;;;;;;22.51;73.44;100816.70;92736;1217;82176;-57
2021/07/08 02:39:09;;;;;;;24.10;16.70;;;;;;;22.50;73.32;100808.69;92740;1217;65323;-58
2021/07/08 02:41:17;;;;;;;24.80;16.30;;;;;;;22.49;73.13;100807.88;92700;1217;69087;-68
2021/07/08 02:43:25;;;;;;;21.30;15.40;;;;;;;22.50;73.30;100815.03;92693;1217;87912;-68
2021/07/08 02:45:36;;;;;;;20.30;15.30;;;;;;;22.49;73.26;100810.63;92622;1217;76859;-57
2021/07/08 02:47:43;;;;;;;21.70;15.70;;;;;;;22.51;73.21;100808.44;92656;1216;81570;-57
2021/07/08 02:49:51;;;;;;;23.70;16.10;;;;;;;22.53;73.52;100806.25;92623;1221;67613;-58
2021/07/08 02:51:59;;;;;;;24.50;15.60;;;;;;;22.53;73.21;100808.17;92654;1225;69179;-59
2021/07/08 02:54:07;;;;;;;21.20;15.00;;;;;;;22.53;73.52;100814.52;92633;1216;88512;-57
2021/07/08 02:56:14;;;;;;;22.80;16.10;;;;;;;22.54;73.52;100815.35;92663;1216;74758;-67
2021/07/08 02:58:25;;;;;;;21.60;15.90;;;;;;;22.54;73.48;100810.68;92720;1217;80544;-67
2021/07/08 03:00:33;;;;;;;26.50;17.40;;;;;;;22.49;73.69;100813.38;92724;1211;67328;-57
2021/07/08 03:02:43;;;;;;;27.90;17.30;;;;;;;22.48;73.85;100817.21;92735;1221;68006;-59
2021/07/08 03:04:52;;;;;;;25.20;17.70;;;;;;;22.50;73.73;100819.70;92787;1209;86809;-67
2021/07/08 03:07:00;;;;;;;21.30;15.40;;;;;;;22.50;74.04;100826.05;92754;1217;75194;-66
2021/07/08 03:09:08;;;;;;;27.50;16.80;;;;;;;22.54;73.97;100826.37;92716;1217;82324;-66
2021/07/08 03:11:16;;;;;;;24.70;16.60;;;;;;;22.55;73.79;100831.60;92779;1211;67433;-68
2021/07/08 03:13:24;;;;;;;23.60;15.20;;;;;;;22.52;73.68;100823.88;92724;1223;69292;-67
2021/07/08 03:15:32;;;;;;;25.20;14.80;;;;;;;22.53;74.02;100830.20;92737;1216;86202;-67
2021/07/08 03:17:43;;;;;;;22.10;14.00;;;;;;;22.57;73.89;100823.94;92734;1216;74260;-68
2021/07/08 03:19:51;;;;;;;25.50;14.60;;;;;;;22.58;73.95;100819.27;92712;1223;81572;-58
2021/07/08 03:21:58;;;;;;;27.20;15.50;;;;;;;22.58;73.81;100824.78;92733;1217;68124;-58
2021/07/08 03:24:07;;;;;;;30.70;17.40;;;;;;;22.57;73.98;100826.70;92721;1224;68049;-57
2021/07/08 03:26:15;;;;;;;30.30;17.40;;;;;;;22.54;74.18;100827.20;92714;1223;87212;-67
2021/07/08 03:28:23;;;;;;;25.50;16.70;;;;;;;22.55;74.27;100839.87;92733;1217;74697;-68
2021/07/08 03:30:31;;;;;;;31.50;18.40;;;;;;;22.53;74.21;100833.79;92736;1217;81653;-67
2021/07/08 03:32:38;;;;;;;42.10;20.70;;;;;;;22.55;74.39;100828.84;92765;1211;66333;-68
2021/07/08 03:34:46;;;;;;;38.30;22.10;;;;;;;22.59;74.50;100834.69;92732;1217;68973;-59
2021/07/08 03:36:54;;;;;;;43.50;22.20;;;;;;;22.61;74.46;100836.09;92723;1217;87496;-58
2021/07/08 03:39:01;;;;;;;41.00;23.10;;;;;;;22.61;74.32;100836.09;92688;1224;74977;-59
2021/07/08 03:41:09;;;;;;;48.60;26.30;;;;;;;22.64;74.66;100832.02;92710;1215;80864;-58
2021/07/08 03:43:16;;;;;;;44.20;25.40;;;;;;;22.62;74.53;100837.77;92707;1222;65185;-58
2021/07/08 03:45:24;;;;;;;43.40;25.60;;;;;;;22.65;74.66;100844.70;92746;1217;69337;-58
2021/07/08 03:47:32;;;;;;;49.40;26.90;;;;;;;22.69;74.35;100843.92;92742;1217;86978;-57
2021/07/08 03:49:43;;;;;;;47.20;26.40;;;;;;;22.67;74.54;100848.87;92728;1217;75574;-62
2021/07/08 03:51:51;;;;;;;42.70;25.90;;;;;;;22.65;74.94;100851.05;92752;1223;80589;-67
2021/07/08 03:53:58;;;;;;;48.00;26.60;;;;;;;22.70;74.78;100859.38;92727;1217;67240;-67
2021/07/08 03:56:06;;;;;;;44.70;26.70;;;;;;;22.72;75.00;100862.69;92766;1222;68310;-57
2021/07/08 03:58:17;;;;;;;50.70;29.90;;;;;;;22.73;74.69;100858.86;92641;1217;86397;-61
2021/07/08 04:00:32;;;;;;;51.40;28.50;;;;;;;22.70;74.59;100861.29;92706;1218;74611;-68
2021/07/08 04:02:40;;;;;;;45.00;25.70;;;;;;;22.72;75.06;100862.69;92725;1216;81545;-66
2021/07/08 04:04:48;;;;;;;47.60;26.40;;;;;;;22.70;74.78;100864.05;92718;1217;68225;-58
2021/07/08 04:06:56;;;;;;;49.20;27.10;;;;;;;22.70;74.86;100864.88;92738;1217;69144;-57
2021/07/08 04:09:03;;;;;;;48.40;27.60;;;;;;;22.72;75.00;100857.19;92737;1217;88126;-59
2021/07/08 04:11:11;;;;;;;45.20;27.00;;;;;;;22.68;75.19;100867.07;92711;1217;74483;-67
2021/07/08 04:13:21;;;;;;;46.80;27.70;;;;;;;22.70;75.35;100859.38;92737;1217;80975;-67
2021/07/08 04:15:30;;;;;;;44.80;26.30;;;;;;;22.72;75.13;100864.61;92627;1224;67702;-67
2021/07/08 04:17:38;;;;;;;43.80;25.70;;;;;;;22.72;75.28;100861.86;92740;1217;69426;-68
2021/07/08 04:19:51;;;;;;;40.90;27.60;;;;;;;22.71;75.19;100872.06;92713;1217;88787;-67
2021/07/08 04:22:00;;;;;;;43.40;26.30;;;;;;;22.67;74.91;100865.39;92757;1217;74699;-67
2021/07/08 04:24:09;;;;;;;40.70;26.00;;;;;;;22.67;75.09;100859.05;92739;1209;80541;-67
2021/07/08 04:26:18;;;;;;;41.60;24.60;;;;;;;22.68;74.85;100857.97;92771;1217;68270;-58
2021/07/08 04:28:25;;;;;;;39.40;25.20;;;;;;;22.63;75.14;100867.02;92753;1217;68469;-59
2021/07/08 04:30:34;;;;;;;39.90;25.40;;;;;;;22.63;75.53;100868.90;92748;1217;86437;-59
2021/07/08 04:32:43;;;;;;;31.60;25.00;;;;;;;22.60;75.35;100867.49;92792;1210;74303;-58
2021/07/08 04:34:50;;;;;;;32.10;23.60;;;;;;;22.62;75.40;100867.22;92689;1217;81519;-67
2021/07/08 04:36:58;;;;;;;35.30;25.00;;;;;;;22.62;75.65;100868.06;92723;1217;68310;-67
2021/07/08 04:39:07;;;;;;;34.60;26.10;;;;;;;22.56;75.55;100868.24;92725;1217;68365;-68
2021/07/08 04:41:15;;;;;;;35.60;24.20;;;;;;;22.58;75.16;100868.84;92757;1223;88215;-58
2021/07/08 04:43:25;;;;;;;35.90;25.20;;;;;;;22.62;75.40;100868.06;92725;1223;75169;-58
2021/07/08 04:45:33;;;;;;;34.70;25.10;;;;;;;22.63;75.62;100866.14;92776;1211;80799;-56
2021/07/08 04:47:42;;;;;;;35.70;24.50;;;;;;;22.63;75.60;100871.66;92717;1217;66678;-58
2021/07/08 04:49:53;;;;;;;38.50;25.30;;;;;;;22.62;75.47;100876.33;92740;1217;68854;-59
2021/07/08 04:52:01;;;;;;;38.50;27.10;;;;;;;22.60;75.65;100870.25;92637;1216;87493;-59
2021/07/08 04:54:09;;;;;;;38.40;26.60;;;;;;;22.62;75.80;100879.08;92721;1217;74312;-59
2021/07/08 04:56:17;;;;;;;34.30;24.70;;;;;;;22.68;75.37;100878.09;92733;1217;81464;-67
2021/07/08 04:58:26;;;;;;;36.80;25.40;;;;;;;22.70;75.63;100875.90;92739;1211;67225;-68
2021/07/08 05:00:34;;;;;;;41.40;26.80;;;;;;;22.69;75.77;100879.73;92784;1210;67976;-68
2021/07/08 05:02:43;;;;;;;40.00;28.10;;;;;;;22.68;75.46;100878.09;92727;1217;87829;-68
2021/07/08 05:04:51;;;;;;;39.70;26.90;;;;;;;22.66;75.90;100880.24;92761;1222;74880;-68
2021/07/08 05:06:58;;;;;;;42.10;27.80;;;;;;;22.70;75.58;100880.57;92768;1210;80654;-69
2021/07/08 05:09:06;;;;;;;44.10;28.20;;;;;;;22.71;75.69;100890.51;92733;1217;67546;-67
2021/07/08 05:11:17;;;;;;;40.20;28.10;;;;;;;22.69;75.93;100890.75;92793;1215;68367;-68
2021/07/08 05:13:24;;;;;;;40.30;28.40;;;;;;;22.73;75.88;100883.66;92766;1217;87900;-67
2021/07/08 05:15:34;;;;;;;41.90;27.20;;;;;;;22.74;75.68;100887.24;92719;1216;74321;-58
2021/07/08 05:17:43;;;;;;;41.70;28.20;;;;;;;22.75;75.70;100889.73;92690;1217;81591;-57
2021/07/08 05:19:50;;;;;;;41.70;27.50;;;;;;;22.78;75.93;100877.36;92754;1217;66234;-58
2021/07/08 05:22:01;;;;;;;43.30;29.40;;;;;;;22.85;75.72;100878.81;92751;1217;69019;-59
2021/07/08 05:24:11;;;;;;;42.10;28.70;;;;;;;22.82;75.77;100890.38;92739;1217;86296;-59
2021/07/08 05:26:19;;;;;;;49.40;31.40;;;;;;;22.83;75.94;100886.52;92718;1217;75400;-58
2021/07/08 05:28:27;;;;;;;46.80;31.00;;;;;;;22.88;75.81;100877.50;92731;1217;81878;-58
2021/07/08 05:30:35;;;;;;;46.80;30.60;;;;;;;22.95;75.60;100883.63;92738;1217;67797;-58
2021/07/08 05:32:43;;;;;;;47.30;31.70;;;;;;;23.02;75.88;100888.94;92722;1217;67857;-59
2021/07/08 05:34:51;;;;;;;47.40;31.20;;;;;;;23.03;75.96;100885.08;92723;1223;87873;-57
2021/07/08 05:36:59;;;;;;;45.10;32.70;;;;;;;23.11;75.62;100888.20;92636;1216;74027;-59
2021/07/08 05:39:09;;;;;;;45.60;30.90;;;;;;;23.16;75.58;100884.66;92642;1217;79931;-58
2021/07/08 05:41:17;;;;;;;49.30;32.20;;;;;;;23.15;75.38;100894.04;92717;1223;69590;-57
2021/07/08 05:43:25;;;;;;;45.60;32.10;;;;;;;23.10;75.49;100891.23;92709;1217;69258;-59
2021/07/08 05:45:32;;;;;;;52.00;33.60;;;;;;;23.03;75.33;100891.42;92745;1217;87624;-69
2021/07/08 05:47:40;;;;;;;47.70;34.20;;;;;;;23.03;75.48;100896.09;92713;1222;75854;-68
2021/07/08 05:49:47;;;;;;;53.20;35.30;;;;;;;23.06;75.34;100901.09;92689;1222;82024;-69
2021/07/08 05:51:55;;;;;;;47.70;34.50;;;;;;;22.97;75.75;100903.48;92710;1217;68023;-67
2021/07/08 05:54:06;;;;;;;47.90;31.80;;;;;;;23.00;75.49;100907.64;92731;1217;68332;-67
2021/07/08 05:56:13;;;;;;;46.50;33.10;;;;;;;23.02;75.67;100919.26;92714;1219;87484;-58
2021/07/08 05:58:21;;;;;;;44.30;31.10;;;;;;;23.01;75.79;100912.91;92732;1223;75645;-59
2021/07/08 06:00:29;;;;;;;46.50;33.60;;;;;;;22.99;75.62;100926.09;92741;1217;80015;-69
2021/07/08 06:02:41;;;;;;;46.40;33.30;;;;;;;22.93;75.72;100924.39;92743;1216;66677;-69
2021/07/08 06:04:48;;;;;;;43.40;32.40;;;;;;;22.95;75.90;100926.88;92722;1224;69563;-62
2021/07/08 06:06:56;;;;;;;44.50;33.30;;;;;;;22.92;76.07;100930.98;92724;1221;88432;-62
2021/07/08 06:09:03;;;;;;;46.80;33.90;;;;;;;22.93;75.88;100934.58;92702;1223;74764;-62
2021/07/08 06:11:11;;;;;;;48.80;35.20;;;;;;;22.92;76.11;100930.98;92703;1224;82002;-69
2021/07/08 06:13:19;;;;;;;48.00;35.70;;;;;;;22.94;76.05;100941.77;92707;1217;66679;-70
2021/07/08 06:15:26;;;;;;;50.90;35.50;;;;;;;22.93;76.04;100940.92;92760;1217;68158;-68
2021/07/08 06:17:34;;;;;;;52.90;36.30;;;;;;;22.95;75.97;100944.25;92716;1217;88033;-69
2021/07/08 06:19:42;;;;;;;55.30;36.70;;;;;;;22.98;76.43;100942.90;92724;1212;74611;-65
2021/07/08 06:21:49;;;;;;;54.30;34.50;;;;;;;23.07;76.12;100946.88;92642;1216;81340;-63
2021/07/08 06:23:57;;;;;;;46.80;34.20;;;;;;;23.16;76.24;100934.27;92730;1217;66128;-63
2021/07/08 06:26:05;;;;;;;54.60;37.10;;;;;;;23.29;76.26;100939.41;92738;1221;67664;-66
2021/07/08 06:28:12;;;;;;;54.80;35.70;;;;;;;23.46;76.27;100945.66;92739;1217;86685;-66
2021/07/08 06:30:22;;;;;;;50.70;37.10;;;;;;;23.62;76.04;100946.66;92746;1210;75185;-68
2021/07/08 06:32:30;;;;;;;50.10;35.80;;;;;;;23.66;76.27;100948.62;92731;1224;81742;-68
2021/07/08 06:34:39;;;;;;;55.70;34.80;;;;;;;23.74;75.83;100950.05;92697;1217;67170;-71
2021/07/08 06:36:46;;;;;;;55.90;38.20;;;;;;;23.73;75.63;100952.01;92746;1217;69052;-59
2021/07/08 06:38:54;;;;;;;55.80;37.40;;;;;;;23.67;75.79;100953.05;92735;1222;87013;-58
2021/07/08 06:41:02;;;;;;;52.30;38.20;;;;;;;23.69;75.41;100959.13;92760;1217;74805;-58
2021/07/08 06:43:10;;;;;;;56.30;37.90;;;;;;;23.68;75.38;100956.65;92698;1222;81314;-56
2021/07/08 06:45:18;;;;;;;56.30;38.00;;;;;;;23.66;75.42;100945.86;92715;1217;67666;-71
2021/07/08 06:47:32;;;;;;;53.70;36.70;;;;;;;23.68;75.59;100956.65;92753;1222;68041;-70
2021/07/08 06:49:43;;;;;;;53.30;38.40;;;;;;;23.78;75.46;100952.05;92751;1217;86386;-66
2021/07/08 06:51:51;;;;;;;52.40;35.80;;;;;;;23.90;75.56;100954.60;92738;1222;75279;-72
2021/07/08 06:54:00;;;;;;;56.50;39.00;;;;;;;24.07;75.31;100952.54;92697;1220;81521;-72
2021/07/08 06:56:08;;;;;;;58.50;39.70;;;;;;;24.25;75.49;100957.69;92770;1223;67681;-73
2021/07/08 06:58:16;;;;;;;56.10;40.20;;;;;;;24.41;75.08;100964.14;92761;1217;68834;-72
2021/07/08 07:00:30;;;;;;;51.40;36.80;;;;;;;24.58;74.89;100970.33;92725;1217;87461;-56
2021/07/08 07:02:37;;;;;;;48.90;35.40;;;;;;;24.71;74.43;100969.00;92787;1209;75716;-58
2021/07/08 07:04:47;;;;;;;48.30;36.10;;;;;;;24.81;74.35;100980.96;92739;1217;80832;-59
2021/07/08 07:06:55;;;;;;;50.40;36.70;;;;;;;24.79;73.93;100982.30;92717;1217;65387;-64
2021/07/08 07:09:03;;;;;;;55.50;38.60;;;;;;;24.72;73.68;100984.48;92761;1223;68201;-64
2021/07/08 07:11:11;;;;;;;51.00;37.00;;;;;;;24.61;73.63;100980.84;92736;1223;88107;-65
2021/07/08 07:13:21;;;;;;;48.40;34.80;;;;;;;24.55;73.71;100979.14;92751;1217;74303;-63
2021/07/08 07:15:31;;;;;;;47.20;34.30;;;;;;;24.54;73.57;100974.70;92721;1217;80272;-63
2021/07/08 07:17:39;;;;;;;46.00;35.30;;;;;;;24.63;73.46;100973.11;92725;1222;67263;-64
2021/07/08 07:19:47;;;;;;;45.70;33.70;;;;;;;24.58;73.50;100976.66;92743;1224;68352;-71
2021/07/08 07:21:55;;;;;;;43.30;33.40;;;;;;;24.64;73.52;100977.52;92632;1224;88601;-70
2021/07/08 07:24:04;;;;;;;53.10;35.20;;;;;;;24.72;73.40;100979.80;92738;1209;74884;-71
2021/07/08 07:26:19;;;;;;;50.00;35.50;;;;;;;24.78;73.52;100981.47;92763;1224;81569;-63
2021/07/08 07:28:26;;;;;;;51.90;35.50;;;;;;;25.02;73.31;100979.13;92734;1224;67045;-61
2021/07/08 07:30:35;;;;;;;54.60;37.00;;;;;;;25.19;73.49;100976.96;92762;1222;67851;-63
2021/07/08 07:32:43;;;;;;;52.90;35.90;;;;;;;25.55;73.20;100969.61;92745;1217;87652;-63
2021/07/08 07:34:50;;;;;;;49.40;35.30;;;;;;;25.77;73.10;100973.80;92760;1222;74834;-64
2021/07/08 07:36:58;;;;;;;49.60;35.30;;;;;;;25.95;72.61;100971.60;92624;1224;82751;-64
2021/07/08 07:39:09;;;;;;;47.20;35.70;;;;;;;26.21;72.16;100964.95;92733;1217;66909;-66
2021/07/08 07:41:17;;;;;;;51.40;36.50;;;;;;;26.47;71.49;100974.06;92737;1217;68958;-70
2021/07/08 07:43:28;;;;;;;47.80;35.80;;;;;;;26.53;71.17;100970.18;92730;1224;87530;-71
2021/07/08 07:45:40;;;;;;;47.00;34.50;;;;;;;26.55;70.85;100968.78;92780;1221;74528;-62
2021/07/08 07:47:53;;;;;;;43.00;33.80;;;;;;;26.75;70.60;100962.36;92716;1215;81853;-62
2021/07/08 07:50:04;;;;;;;43.00;33.20;;;;;;;27.11;70.00;100971.39;92726;1217;66685;-71
2021/07/08 07:52:15;;;;;;;44.80;34.70;;;;;;;27.18;69.79;100964.41;92690;1216;68271;-72
2021/07/08 07:54:24;;;;;;;43.20;34.50;;;;;;;27.07;69.32;100967.51;92719;1223;87754;-68
2021/07/08 07:56:32;;;;;;;43.00;34.10;;;;;;;26.84;69.06;100974.53;92765;1217;75444;-64
2021/07/08 07:58:39;;;;;;;43.40;33.80;;;;;;;26.50;68.58;100979.89;92729;1217;82238;-66
2021/07/08 08:00:48;;;;;;;39.90;33.60;;;;;;;26.30;68.58;100977.14;92742;1217;65357;-64
2021/07/08 08:02:55;;;;;;;43.30;34.80;;;;;;;26.22;68.82;100980.48;92740;1217;68874;-64
2021/07/08 08:05:21;;;;;;;39.90;32.80;;;;;;;26.23;69.30;100979.38;92721;1223;87061;-64
2021/07/08 08:09:58;;;;;;;41.00;33.00;;;;;;;26.85;69.39;100973.43;92729;1217;79934;-63
2021/07/08 08:12:08;;;;;;;36.30;32.20;;;;;;;27.25;69.05;100983.53;92736;1219;67789;-63
2021/07/08 08:14:15;;;;;;;35.50;31.60;;;;;;;27.65;68.03;100988.86;92764;1217;68581;-66
2021/07/08 08:16:26;;;;;;;37.80;32.40;;;;;;;27.97;67.72;100985.55;92731;1222;88634;-62
2021/07/08 08:18:34;;;;;;;35.70;31.60;;;;;;;28.11;67.15;100983.80;92770;1209;75738;-63
2021/07/08 08:20:42;;;;;;;35.50;31.60;;;;;;;28.00;66.43;100984.97;92744;1217;81587;-64
2021/07/08 08:22:49;;;;;;;33.70;30.30;;;;;;;27.92;66.26;100989.20;92738;1222;67273;-63
2021/07/08 08:24:57;;;;;;;36.80;32.80;;;;;;;27.88;66.23;100992.87;92710;1217;69963;-62
2021/07/08 08:27:09;;;;;;;34.90;31.30;;;;;;;27.81;65.52;100986.79;92727;1217;87822;-62
2021/07/08 08:29:16;;;;;;;35.90;31.90;;;;;;;27.70;65.50;100986.04;92742;1222;75152;-63
2021/07/08 08:31:24;;;;;;;35.40;31.70;;;;;;;27.87;65.90;100985.64;92735;1217;82232;-64
2021/07/08 08:33:32;;;;;;;35.60;31.70;;;;;;;28.04;65.32;100981.38;92660;1214;66348;-63
2021/07/08 08:35:40;;;;;;;35.00;31.30;;;;;;;28.17;64.89;100982.64;92757;1216;70591;-73
2021/07/08 08:37:48;;;;;;;35.30;31.70;;;;;;;28.28;64.52;100980.59;92745;1217;88094;-73
2021/07/08 08:39:56;;;;;;;37.00;33.30;;;;;;;28.82;65.32;100985.87;92735;1217;75161;-70
2021/07/08 08:42:09;;;;;;;32.20;28.90;;;;;;;30.02;63.05;100985.34;92748;1217;82346;-73
2021/07/08 08:44:16;;;;;;;34.50;31.10;;;;;;;30.69;62.60;100976.31;92743;1217;66837;-71
2021/07/08 08:46:24;;;;;;;32.90;29.60;;;;;;;31.51;61.77;100979.06;92703;1222;68688;-62
2021/07/08 08:48:32;;;;;;;31.30;28.20;;;;;;;32.07;59.00;100973.81;92729;1217;86960;-61
2021/07/08 08:50:42;;;;;;;31.40;28.10;;;;;;;32.07;57.37;100962.63;92690;1217;75796;-64
2021/07/08 08:52:53;;;;;;;30.10;27.00;;;;;;;32.13;57.74;100959.70;92701;1216;81003;-64
2021/07/08 08:55:01;;;;;;;31.50;28.30;;;;;;;32.23;56.78;100965.02;92708;1221;67729;-64
2021/07/08 08:57:11;;;;;;;27.70;25.00;;;;;;;32.30;56.31;100965.40;92727;1217;69185;-65
2021/07/08 08:59:22;;;;;;;29.30;26.40;;;;;;;32.74;55.91;100967.28;92708;1217;88351;-63
2021/07/08 09:01:30;;;;;;;30.10;27.10;;;;;;;32.44;53.84;100966.94;92721;1209;74701;-76
2021/07/08 09:03:39;;;;;;;28.40;25.60;;;;;;;32.41;54.03;100963.98;92680;1216;80491;-75
2021/07/08 09:05:58;;;;;;;31.70;28.60;;;;;;;32.37;53.24;100951.77;92719;1216;65905;-74
2021/07/08 09:08:18;;;;;;;29.00;26.10;;;;;;;32.13;53.72;100942.92;92720;1216;68488;-76
2021/07/08 09:10:25;;;;;;;29.90;27.00;;;;;;;32.48;54.40;100951.17;92745;1217;86156;-63
2021/07/08 09:12:33;;;;;;;29.90;27.10;;;;;;;32.92;53.58;100953.02;92745;1217;74627;-64
2021/07/08 09:14:42;;;;;;;30.00;26.90;;;;;;;32.90;53.87;100946.09;92727;1217;81492;-73
2021/07/08 09:16:49;;;;;;;29.70;26.70;;;;;;;32.41;52.84;100945.23;92721;1217;67071;-66
2021/07/08 09:19:08;;;;;;;30.50;27.60;;;;;;;31.95;53.14;100947.53;92637;1217;69266;-64
2021/07/08 09:21:21;;;;;;;30.80;27.50;;;;;;;31.72;53.32;100957.08;92763;1217;86215;-81
2021/07/08 09:23:27;;;;;;;;;;;;;;;31.71;53.58;100950.66;92762;1215;75469;-79
2021/07/08 09:25:35;;;;;;;30.80;27.80;;;;;;;31.61;53.04;100941.70;92656;1217;81644;-78
2021/07/08 09:27:43;;;;;;;29.40;26.40;;;;;;;31.44;53.39;100942.34;92754;1217;66392;-79
2021/07/08 09:29:51;;;;;;;29.90;26.70;;;;;;;31.37;53.38;100939.17;92794;1208;68320;-74
2021/07/08 09:32:01;;;;;;;29.80;27.00;;;;;;;31.65;53.67;100943.53;92669;1216;87696;-75
2021/07/08 09:34:24;;;;;;;30.30;27.30;;;;;;;31.42;53.11;100939.88;92711;1221;75607;-79
2021/07/08 09:36:31;;;;;;;30.80;27.80;;;;;;;30.95;53.14;100937.59;92680;1224;81853;-74
2021/07/08 09:38:45;;;;;;;29.70;26.60;;;;;;;30.47;53.61;100934.35;92711;1216;66611;-67
2021/07/08 09:41:09;;;;;;;30.40;27.30;;;;;;;30.40;54.07;100945.09;92748;1217;69533;-68
2021/07/08 09:43:34;;;;;;;30.90;27.80;;;;;;;30.14;54.35;100943.86;92717;1221;87473;-77
2021/07/08 09:45:50;;;;;;;29.40;26.50;;;;;;;30.14;55.76;100935.50;92713;1216;75500;-76
2021/07/08 09:48:18;;;;;;;32.60;29.00;;;;;;;30.38;55.85;100927.86;92709;1217;79763;-73
2021/07/08 09:50:40;;;;;;;32.00;28.70;;;;;;;30.85;56.71;100940.55;92711;1224;67709;-69